sensor_id;sensor_type;location;lat;lon;timestamp;temperature;humidity
19924;DHT22;10124;53.068;18.224;2023-03-14T00:00:30;11.40;1.00
19924;DHT22;10124;53.068;18.224;2023-03-14T00:03:18;11.40;1.00
19924;DHT22;10124;53.068;18.224;2023-03-14T00:05:46;11.30;1.00
19924;DHT22;10124;53.068;18.224;2023-03-14T00:08:13;11.40;1.00
19924;DHT22;10124;53.068;18.224;2023-03-14T00:10:41;11.30;1.00
19924;DHT22;10124;53.068;18.224;2023-03-14T00:13:09;11.30;1.00
19924;DHT22;10124;53.068;18.224;2023-03-14T00:15:36;11.40;1.00
19924;DHT22;10124;53.068;18.224;2023-03-14T00:18:04;11.40;1.00
19924;DHT22;10124;53.068;18.224;2023-03-14T00:20:31;11.40;1.00
19924;DHT22;10124;53.068;18.224;2023-03-14T00:22:59;11.40;1.00
19924;DHT22;10124;53.068;18.224;2023-03-14T00:25:26;11.40;1.00
19924;DHT22;10124;53.068;18.224;2023-03-14T00:27:53;11.20;1.00
19924;DHT22;10124;53.068;18.224;2023-03-14T00:30:21;11.40;1.00
19924;DHT22;10124;53.068;18.224;2023-03-14T00:32:48;11.40;1.00
19924;DHT22;10124;53.068;18.224;2023-03-14T00:35:16;11.40;1.00
19924;DHT22;10124;53.068;18.224;2023-03-14T00:37:45;11.40;1.00
19924;DHT22;10124;53.068;18.224;2023-03-14T00:40:14;11.40;1.00
19924;DHT22;10124;53.068;18.224;2023-03-14T00:42:41;11.40;1.00
19924;DHT22;10124;53.068;18.224;2023-03-14T00:45:09;11.30;1.00
19924;DHT22;10124;53.068;18.224;2023-03-14T00:47:37;11.30;1.00
19924;DHT22;10124;53.068;18.224;2023-03-14T00:50:05;11.40;1.00
19924;DHT22;10124;53.068;18.224;2023-03-14T00:52:32;11.30;1.00
19924;DHT22;10124;53.068;18.224;2023-03-14T00:54:59;11.30;1.00
19924;DHT22;10124;53.068;18.224;2023-03-14T00:57:27;11.30;1.00
19924;DHT22;10124;53.068;18.224;2023-03-14T00:59:54;11.30;1.00
19924;DHT22;10124;53.068;18.224;2023-03-14T01:02:22;11.30;1.00
19924;DHT22;10124;53.068;18.224;2023-03-14T01:04:49;11.30;1.00
19924;DHT22;10124;53.068;18.224;2023-03-14T01:07:17;11.30;1.00
19924;DHT22;10124;53.068;18.224;2023-03-14T01:09:44;11.30;1.00
19924;DHT22;10124;53.068;18.224;2023-03-14T01:12:11;11.30;1.00
19924;DHT22;10124;53.068;18.224;2023-03-14T01:14:42;11.30;1.00
19924;DHT22;10124;53.068;18.224;2023-03-14T01:17:09;11.30;1.00
19924;DHT22;10124;53.068;18.224;2023-03-14T01:19:36;11.30;1.00
19924;DHT22;10124;53.068;18.224;2023-03-14T01:22:04;11.30;1.00
19924;DHT22;10124;53.068;18.224;2023-03-14T01:24:31;11.20;1.00
19924;DHT22;10124;53.068;18.224;2023-03-14T01:26:58;11.30;1.00
19924;DHT22;10124;53.068;18.224;2023-03-14T01:29:27;11.20;1.00
19924;DHT22;10124;53.068;18.224;2023-03-14T01:31:54;11.20;1.00
19924;DHT22;10124;53.068;18.224;2023-03-14T01:34:22;11.10;1.00
19924;DHT22;10124;53.068;18.224;2023-03-14T01:36:50;11.00;1.00
19924;DHT22;10124;53.068;18.224;2023-03-14T01:39:18;11.00;1.00
19924;DHT22;10124;53.068;18.224;2023-03-14T01:41:45;11.00;1.00
19924;DHT22;10124;53.068;18.224;2023-03-14T01:44:13;11.00;1.00
19924;DHT22;10124;53.068;18.224;2023-03-14T01:46:44;10.90;1.00
19924;DHT22;10124;53.068;18.224;2023-03-14T01:49:29;10.90;1.00
19924;DHT22;10124;53.068;18.224;2023-03-14T01:54:58;10.90;1.00
19924;DHT22;10124;53.068;18.224;2023-03-14T01:57:33;11.00;1.00
19924;DHT22;10124;53.068;18.224;2023-03-14T02:00:09;11.00;1.00
19924;DHT22;10124;53.068;18.224;2023-03-14T02:02:46;11.10;1.00
19924;DHT22;10124;53.068;18.224;2023-03-14T02:05:19;11.00;1.00
19924;DHT22;10124;53.068;18.224;2023-03-14T02:07:59;11.00;1.00
19924;DHT22;10124;53.068;18.224;2023-03-14T02:10:34;11.10;1.00
19924;DHT22;10124;53.068;18.224;2023-03-14T02:13:04;11.20;1.00
19924;DHT22;10124;53.068;18.224;2023-03-14T02:15:51;11.20;1.00
19924;DHT22;10124;53.068;18.224;2023-03-14T02:18:37;11.20;1.00
19924;DHT22;10124;53.068;18.224;2023-03-14T02:24:58;11.30;1.00
19924;DHT22;10124;53.068;18.224;2023-03-14T02:27:26;11.40;1.00
19924;DHT22;10124;53.068;18.224;2023-03-14T02:30:16;11.50;1.00
19924;DHT22;10124;53.068;18.224;2023-03-14T02:32:47;11.50;1.00
19924;DHT22;10124;53.068;18.224;2023-03-14T02:35:19;11.70;1.00
19924;DHT22;10124;53.068;18.224;2023-03-14T02:37:53;11.80;1.00
19924;DHT22;10124;53.068;18.224;2023-03-14T02:40:23;11.80;1.00
19924;DHT22;10124;53.068;18.224;2023-03-14T02:42:52;11.90;1.00
19924;DHT22;10124;53.068;18.224;2023-03-14T02:47:54;12.10;1.00
19924;DHT22;10124;53.068;18.224;2023-03-14T02:50:26;12.10;1.00
19924;DHT22;10124;53.068;18.224;2023-03-14T02:52:56;12.10;1.00
19924;DHT22;10124;53.068;18.224;2023-03-14T02:55:24;12.20;1.00
19924;DHT22;10124;53.068;18.224;2023-03-14T02:57:57;12.20;1.00
19924;DHT22;10124;53.068;18.224;2023-03-14T03:00:25;12.30;1.00
19924;DHT22;10124;53.068;18.224;2023-03-14T03:02:53;12.30;1.00
19924;DHT22;10124;53.068;18.224;2023-03-14T03:05:21;12.20;1.00
19924;DHT22;10124;53.068;18.224;2023-03-14T03:07:48;12.30;1.00
19924;DHT22;10124;53.068;18.224;2023-03-14T03:10:16;12.20;1.00
19924;DHT22;10124;53.068;18.224;2023-03-14T03:12:44;12.20;1.00
19924;DHT22;10124;53.068;18.224;2023-03-14T03:15:11;12.30;1.00
19924;DHT22;10124;53.068;18.224;2023-03-14T03:17:40;12.30;1.00
19924;DHT22;10124;53.068;18.224;2023-03-14T03:20:08;12.30;1.00
19924;DHT22;10124;53.068;18.224;2023-03-14T03:22:39;12.20;1.00
19924;DHT22;10124;53.068;18.224;2023-03-14T03:25:09;12.20;1.00
19924;DHT22;10124;53.068;18.224;2023-03-14T03:27:37;12.20;1.00
19924;DHT22;10124;53.068;18.224;2023-03-14T03:30:07;12.20;1.00
19924;DHT22;10124;53.068;18.224;2023-03-14T03:32:35;12.10;1.00
19924;DHT22;10124;53.068;18.224;2023-03-14T03:35:04;12.10;1.00
19924;DHT22;10124;53.068;18.224;2023-03-14T03:37:34;12.00;1.00
19924;DHT22;10124;53.068;18.224;2023-03-14T03:40:05;12.00;1.00
19924;DHT22;10124;53.068;18.224;2023-03-14T03:42:35;12.00;1.00
19924;DHT22;10124;53.068;18.224;2023-03-14T03:45:06;12.00;1.00
19924;DHT22;10124;53.068;18.224;2023-03-14T03:47:37;11.90;1.00
19924;DHT22;10124;53.068;18.224;2023-03-14T03:50:05;11.80;1.00
19924;DHT22;10124;53.068;18.224;2023-03-14T03:52:33;11.80;1.00
19924;DHT22;10124;53.068;18.224;2023-03-14T03:55:01;11.80;1.00
19924;DHT22;10124;53.068;18.224;2023-03-14T03:57:28;11.80;1.00
19924;DHT22;10124;53.068;18.224;2023-03-14T03:59:56;11.70;1.00
19924;DHT22;10124;53.068;18.224;2023-03-14T04:02:24;11.60;1.00
19924;DHT22;10124;53.068;18.224;2023-03-14T04:04:52;11.50;1.00
19924;DHT22;10124;53.068;18.224;2023-03-14T04:07:20;11.50;1.00
19924;DHT22;10124;53.068;18.224;2023-03-14T04:09:47;11.40;1.00
19924;DHT22;10124;53.068;18.224;2023-03-14T04:12:36;11.40;1.00
19924;DHT22;10124;53.068;18.224;2023-03-14T04:15:07;11.30;2.00
19924;DHT22;10124;53.068;18.224;2023-03-14T04:17:37;11.20;1.60
19924;DHT22;10124;53.068;18.224;2023-03-14T04:20:05;11.20;5.20
19924;DHT22;10124;53.068;18.224;2023-03-14T04:22:39;11.10;6.10
19924;DHT22;10124;53.068;18.224;2023-03-14T04:25:10;11.10;2.60
19924;DHT22;10124;53.068;18.224;2023-03-14T04:27:42;11.10;3.20
19924;DHT22;10124;53.068;18.224;2023-03-14T04:30:17;11.00;5.50
19924;DHT22;10124;53.068;18.224;2023-03-14T04:33:11;11.00;9.00
19924;DHT22;10124;53.068;18.224;2023-03-14T04:35:47;10.90;5.40
19924;DHT22;10124;53.068;18.224;2023-03-14T04:38:16;10.80;6.30
19924;DHT22;10124;53.068;18.224;2023-03-14T04:40:45;10.80;15.90
19924;DHT22;10124;53.068;18.224;2023-03-14T04:43:15;10.80;15.00
19924;DHT22;10124;53.068;18.224;2023-03-14T04:45:50;10.90;2.20
19924;DHT22;10124;53.068;18.224;2023-03-14T04:48:18;10.90;1.00
19924;DHT22;10124;53.068;18.224;2023-03-14T04:50:46;10.90;1.00
19924;DHT22;10124;53.068;18.224;2023-03-14T04:53:16;10.90;1.00
19924;DHT22;10124;53.068;18.224;2023-03-14T04:55:52;10.80;1.00
19924;DHT22;10124;53.068;18.224;2023-03-14T04:58:22;10.90;1.00
19924;DHT22;10124;53.068;18.224;2023-03-14T05:00:51;10.80;1.00
19924;DHT22;10124;53.068;18.224;2023-03-14T05:03:54;10.80;1.00
19924;DHT22;10124;53.068;18.224;2023-03-14T05:06:42;10.80;1.00
19924;DHT22;10124;53.068;18.224;2023-03-14T05:09:30;10.80;1.00
19924;DHT22;10124;53.068;18.224;2023-03-14T05:12:22;10.80;1.00
19924;DHT22;10124;53.068;18.224;2023-03-14T05:15:08;10.80;1.00
19924;DHT22;10124;53.068;18.224;2023-03-14T05:17:56;10.80;1.00
19924;DHT22;10124;53.068;18.224;2023-03-14T05:20:41;10.70;1.00
19924;DHT22;10124;53.068;18.224;2023-03-14T05:23:29;10.60;1.00
19924;DHT22;10124;53.068;18.224;2023-03-14T05:26:15;10.60;1.00
19924;DHT22;10124;53.068;18.224;2023-03-14T05:28:57;10.60;1.00
19924;DHT22;10124;53.068;18.224;2023-03-14T05:31:42;10.50;1.00
19924;DHT22;10124;53.068;18.224;2023-03-14T05:34:23;10.50;1.00
19924;DHT22;10124;53.068;18.224;2023-03-14T05:37:22;10.50;1.00
19924;DHT22;10124;53.068;18.224;2023-03-14T05:40:08;10.40;1.00
19924;DHT22;10124;53.068;18.224;2023-03-14T05:43:02;10.50;1.00
19924;DHT22;10124;53.068;18.224;2023-03-14T05:45:46;10.60;1.00
19924;DHT22;10124;53.068;18.224;2023-03-14T05:48:46;10.50;1.00
19924;DHT22;10124;53.068;18.224;2023-03-14T05:51:45;10.50;1.00
19924;DHT22;10124;53.068;18.224;2023-03-14T05:54:41;10.50;1.00
19924;DHT22;10124;53.068;18.224;2023-03-14T05:57:38;10.50;1.00
19924;DHT22;10124;53.068;18.224;2023-03-14T06:00:34;10.40;1.00
19924;DHT22;10124;53.068;18.224;2023-03-14T06:03:17;10.50;1.00
19924;DHT22;10124;53.068;18.224;2023-03-14T06:05:50;10.50;1.00
19924;DHT22;10124;53.068;18.224;2023-03-14T06:08:20;10.50;1.00
19924;DHT22;10124;53.068;18.224;2023-03-14T06:10:47;10.50;1.00
19924;DHT22;10124;53.068;18.224;2023-03-14T06:13:15;10.50;1.00
19924;DHT22;10124;53.068;18.224;2023-03-14T06:15:43;10.50;1.00
19924;DHT22;10124;53.068;18.224;2023-03-14T06:18:12;10.60;1.00
19924;DHT22;10124;53.068;18.224;2023-03-14T06:20:42;10.70;1.00
19924;DHT22;10124;53.068;18.224;2023-03-14T06:23:14;10.70;1.00
19924;DHT22;10124;53.068;18.224;2023-03-14T06:25:41;10.70;1.00
19924;DHT22;10124;53.068;18.224;2023-03-14T06:28:08;10.70;1.00
19924;DHT22;10124;53.068;18.224;2023-03-14T06:30:36;10.80;1.00
19924;DHT22;10124;53.068;18.224;2023-03-14T06:33:04;10.80;1.00
19924;DHT22;10124;53.068;18.224;2023-03-14T06:35:31;10.90;1.00
19924;DHT22;10124;53.068;18.224;2023-03-14T06:37:59;10.90;1.00
19924;DHT22;10124;53.068;18.224;2023-03-14T06:40:27;11.00;1.00
19924;DHT22;10124;53.068;18.224;2023-03-14T06:43:06;11.10;1.00
19924;DHT22;10124;53.068;18.224;2023-03-14T06:45:36;11.30;1.00
19924;DHT22;10124;53.068;18.224;2023-03-14T06:48:04;11.30;1.00
19924;DHT22;10124;53.068;18.224;2023-03-14T06:50:38;11.30;1.00
19924;DHT22;10124;53.068;18.224;2023-03-14T06:53:05;11.40;1.00
19924;DHT22;10124;53.068;18.224;2023-03-14T06:55:37;11.50;1.00
19924;DHT22;10124;53.068;18.224;2023-03-14T06:58:06;11.50;1.00
19924;DHT22;10124;53.068;18.224;2023-03-14T07:00:41;11.40;1.00
19924;DHT22;10124;53.068;18.224;2023-03-14T07:03:10;11.40;1.00
19924;DHT22;10124;53.068;18.224;2023-03-14T07:05:41;11.30;1.00
19924;DHT22;10124;53.068;18.224;2023-03-14T07:08:09;11.20;1.00
19924;DHT22;10124;53.068;18.224;2023-03-14T07:10:37;11.20;1.00
19924;DHT22;10124;53.068;18.224;2023-03-14T07:13:06;11.20;1.00
19924;DHT22;10124;53.068;18.224;2023-03-14T07:15:38;11.30;1.00
19924;DHT22;10124;53.068;18.224;2023-03-14T07:18:09;11.30;1.00
19924;DHT22;10124;53.068;18.224;2023-03-14T07:20:37;11.20;1.00
19924;DHT22;10124;53.068;18.224;2023-03-14T07:23:05;11.30;1.00
19924;DHT22;10124;53.068;18.224;2023-03-14T07:25:41;11.60;1.00
19924;DHT22;10124;53.068;18.224;2023-03-14T07:28:08;12.10;1.00
19924;DHT22;10124;53.068;18.224;2023-03-14T07:30:39;11.20;1.00
19924;DHT22;10124;53.068;18.224;2023-03-14T07:33:14;12.60;1.00
19924;DHT22;10124;53.068;18.224;2023-03-14T07:35:41;12.40;1.00
19924;DHT22;10124;53.068;18.224;2023-03-14T07:38:09;12.20;1.00
19924;DHT22;10124;53.068;18.224;2023-03-14T07:40:44;12.10;1.00
19924;DHT22;10124;53.068;18.224;2023-03-14T07:43:12;12.00;1.00
19924;DHT22;10124;53.068;18.224;2023-03-14T07:45:47;11.90;1.00
19924;DHT22;10124;53.068;18.224;2023-03-14T07:48:17;11.90;1.00
19924;DHT22;10124;53.068;18.224;2023-03-14T07:50:48;12.00;1.00
19924;DHT22;10124;53.068;18.224;2023-03-14T07:53:16;12.00;1.00
19924;DHT22;10124;53.068;18.224;2023-03-14T07:55:44;12.00;1.00
19924;DHT22;10124;53.068;18.224;2023-03-14T07:58:12;12.00;1.00
19924;DHT22;10124;53.068;18.224;2023-03-14T08:00:40;12.00;1.00
19924;DHT22;10124;53.068;18.224;2023-03-14T08:03:07;12.00;1.00
19924;DHT22;10124;53.068;18.224;2023-03-14T08:05:38;11.90;1.00
19924;DHT22;10124;53.068;18.224;2023-03-14T08:08:06;12.00;1.00
19924;DHT22;10124;53.068;18.224;2023-03-14T08:10:34;12.00;1.00
19924;DHT22;10124;53.068;18.224;2023-03-14T08:13:01;12.10;1.00
19924;DHT22;10124;53.068;18.224;2023-03-14T08:15:30;12.20;1.00
19924;DHT22;10124;53.068;18.224;2023-03-14T08:17:57;12.20;1.00
19924;DHT22;10124;53.068;18.224;2023-03-14T08:20:27;12.30;1.00
19924;DHT22;10124;53.068;18.224;2023-03-14T08:22:56;12.40;1.00
19924;DHT22;10124;53.068;18.224;2023-03-14T08:25:26;12.40;1.00
19924;DHT22;10124;53.068;18.224;2023-03-14T08:27:54;12.40;1.00
19924;DHT22;10124;53.068;18.224;2023-03-14T08:30:22;12.30;1.00
19924;DHT22;10124;53.068;18.224;2023-03-14T08:32:49;12.30;1.00
19924;DHT22;10124;53.068;18.224;2023-03-14T08:35:17;12.30;1.00
19924;DHT22;10124;53.068;18.224;2023-03-14T08:37:45;12.40;1.00
19924;DHT22;10124;53.068;18.224;2023-03-14T08:40:13;12.60;1.00
19924;DHT22;10124;53.068;18.224;2023-03-14T08:42:40;12.70;1.00
19924;DHT22;10124;53.068;18.224;2023-03-14T08:45:10;12.80;1.00
19924;DHT22;10124;53.068;18.224;2023-03-14T08:47:38;12.80;1.00
19924;DHT22;10124;53.068;18.224;2023-03-14T08:50:07;12.80;1.00
19924;DHT22;10124;53.068;18.224;2023-03-14T08:52:35;12.80;1.00
19924;DHT22;10124;53.068;18.224;2023-03-14T08:55:03;12.90;1.00
19924;DHT22;10124;53.068;18.224;2023-03-14T08:57:30;12.70;1.00
19924;DHT22;10124;53.068;18.224;2023-03-14T08:59:58;12.60;1.00
19924;DHT22;10124;53.068;18.224;2023-03-14T09:02:26;12.70;1.00
19924;DHT22;10124;53.068;18.224;2023-03-14T09:04:54;12.70;1.00
19924;DHT22;10124;53.068;18.224;2023-03-14T09:07:21;12.80;1.00
19924;DHT22;10124;53.068;18.224;2023-03-14T09:09:49;12.90;1.00
19924;DHT22;10124;53.068;18.224;2023-03-14T09:12:16;13.10;1.00
19924;DHT22;10124;53.068;18.224;2023-03-14T09:14:43;13.20;1.00
19924;DHT22;10124;53.068;18.224;2023-03-14T09:17:11;13.20;1.00
19924;DHT22;10124;53.068;18.224;2023-03-14T09:19:38;13.20;1.00
19924;DHT22;10124;53.068;18.224;2023-03-14T09:22:05;13.10;1.00
19924;DHT22;10124;53.068;18.224;2023-03-14T09:24:33;13.30;1.00
19924;DHT22;10124;53.068;18.224;2023-03-14T09:27:00;13.40;1.00
19924;DHT22;10124;53.068;18.224;2023-03-14T09:29:27;13.30;1.00
19924;DHT22;10124;53.068;18.224;2023-03-14T09:31:55;13.50;1.00
19924;DHT22;10124;53.068;18.224;2023-03-14T09:34:24;13.50;1.00
19924;DHT22;10124;53.068;18.224;2023-03-14T09:36:51;13.50;1.00
19924;DHT22;10124;53.068;18.224;2023-03-14T09:39:19;13.60;1.00
19924;DHT22;10124;53.068;18.224;2023-03-14T09:41:48;13.70;1.00
19924;DHT22;10124;53.068;18.224;2023-03-14T09:44:32;13.90;1.00
19924;DHT22;10124;53.068;18.224;2023-03-14T09:47:06;14.00;1.00
19924;DHT22;10124;53.068;18.224;2023-03-14T09:49:37;14.20;1.00
19924;DHT22;10124;53.068;18.224;2023-03-14T09:52:26;14.20;1.00
19924;DHT22;10124;53.068;18.224;2023-03-14T09:57:25;14.70;1.00
19924;DHT22;10124;53.068;18.224;2023-03-14T09:59:56;15.00;1.00
19924;DHT22;10124;53.068;18.224;2023-03-14T10:02:31;15.50;1.00
19924;DHT22;10124;53.068;18.224;2023-03-14T10:05:00;15.90;1.00
19924;DHT22;10124;53.068;18.224;2023-03-14T10:07:33;16.10;1.00
19924;DHT22;10124;53.068;18.224;2023-03-14T10:10:01;15.90;1.00
19924;DHT22;10124;53.068;18.224;2023-03-14T10:12:33;15.60;1.00
19924;DHT22;10124;53.068;18.224;2023-03-14T10:15:06;15.80;1.00
19924;DHT22;10124;53.068;18.224;2023-03-14T10:17:43;15.60;1.00
19924;DHT22;10124;53.068;18.224;2023-03-14T10:20:28;15.50;1.00
19924;DHT22;10124;53.068;18.224;2023-03-14T10:23:06;15.30;1.00
19924;DHT22;10124;53.068;18.224;2023-03-14T10:25:35;14.90;1.00
19924;DHT22;10124;53.068;18.224;2023-03-14T10:28:34;14.50;1.00
19924;DHT22;10124;53.068;18.224;2023-03-14T10:31:00;14.10;1.00
19924;DHT22;10124;53.068;18.224;2023-03-14T10:33:33;13.90;1.00
19924;DHT22;10124;53.068;18.224;2023-03-14T10:36:09;13.80;1.00
19924;DHT22;10124;53.068;18.224;2023-03-14T10:38:44;13.80;1.00
19924;DHT22;10124;53.068;18.224;2023-03-14T10:41:30;13.80;1.00
19924;DHT22;10124;53.068;18.224;2023-03-14T10:43:59;13.70;1.00
19924;DHT22;10124;53.068;18.224;2023-03-14T10:46:31;13.80;1.00
19924;DHT22;10124;53.068;18.224;2023-03-14T10:49:35;13.80;1.00
19924;DHT22;10124;53.068;18.224;2023-03-14T10:52:23;13.70;1.00
19924;DHT22;10124;53.068;18.224;2023-03-14T10:55:11;13.70;1.00
19924;DHT22;10124;53.068;18.224;2023-03-14T10:57:40;13.70;1.00
19924;DHT22;10124;53.068;18.224;2023-03-14T11:00:19;13.60;1.00
19924;DHT22;10124;53.068;18.224;2023-03-14T11:03:08;13.50;1.00
19924;DHT22;10124;53.068;18.224;2023-03-14T11:06:11;13.50;1.00
19924;DHT22;10124;53.068;18.224;2023-03-14T11:08:42;13.50;1.00
19924;DHT22;10124;53.068;18.224;2023-03-14T11:11:24;13.50;1.00
19924;DHT22;10124;53.068;18.224;2023-03-14T11:14:14;13.50;1.00
19924;DHT22;10124;53.068;18.224;2023-03-14T11:17:02;13.70;1.00
19924;DHT22;10124;53.068;18.224;2023-03-14T11:19:45;13.70;1.00
19924;DHT22;10124;53.068;18.224;2023-03-14T11:22:27;13.60;1.00
19924;DHT22;10124;53.068;18.224;2023-03-14T11:25:07;13.60;1.00
19924;DHT22;10124;53.068;18.224;2023-03-14T11:30:49;13.70;1.00
19924;DHT22;10124;53.068;18.224;2023-03-14T11:33:31;13.80;1.00
19924;DHT22;10124;53.068;18.224;2023-03-14T11:36:08;13.80;1.00
19924;DHT22;10124;53.068;18.224;2023-03-14T11:38:52;13.90;1.00
19924;DHT22;10124;53.068;18.224;2023-03-14T11:41:41;13.80;1.00
19924;DHT22;10124;53.068;18.224;2023-03-14T11:51:56;14.10;1.00
19924;DHT22;10124;53.068;18.224;2023-03-14T11:54:34;14.10;1.00
19924;DHT22;10124;53.068;18.224;2023-03-14T11:57:29;14.20;1.00
19924;DHT22;10124;53.068;18.224;2023-03-14T12:00:13;14.10;1.00
19924;DHT22;10124;53.068;18.224;2023-03-14T12:02:58;14.20;1.00
19924;DHT22;10124;53.068;18.224;2023-03-14T12:05:40;14.30;1.00
19924;DHT22;10124;53.068;18.224;2023-03-14T12:10:51;14.30;1.00
19924;DHT22;10124;53.068;18.224;2023-03-14T12:13:20;14.40;1.00
19924;DHT22;10124;53.068;18.224;2023-03-14T12:15:54;14.40;1.00
19924;DHT22;10124;53.068;18.224;2023-03-14T12:18:33;14.50;1.00
19924;DHT22;10124;53.068;18.224;2023-03-14T12:21:03;14.70;1.00
19924;DHT22;10124;53.068;18.224;2023-03-14T12:23:53;14.90;1.00
19924;DHT22;10124;53.068;18.224;2023-03-14T12:26:26;14.90;1.00
19924;DHT22;10124;53.068;18.224;2023-03-14T12:36:48;15.90;1.00
19924;DHT22;10124;53.068;18.224;2023-03-14T12:39:49;15.30;1.00
19924;DHT22;10124;53.068;18.224;2023-03-14T12:49:03;14.60;1.00
19924;DHT22;10124;53.068;18.224;2023-03-14T12:51:40;14.90;1.00
19924;DHT22;10124;53.068;18.224;2023-03-14T12:59:32;15.30;1.00
19924;DHT22;10124;53.068;18.224;2023-03-14T13:04:44;14.50;1.00
19924;DHT22;10124;53.068;18.224;2023-03-14T13:07:32;14.20;1.00
19924;DHT22;10124;53.068;18.224;2023-03-14T13:15:21;14.00;1.00
19924;DHT22;10124;53.068;18.224;2023-03-14T13:17:53;13.90;1.00
19924;DHT22;10124;53.068;18.224;2023-03-14T13:20:28;14.10;1.00
19924;DHT22;10124;53.068;18.224;2023-03-14T13:22:56;14.50;1.00
19924;DHT22;10124;53.068;18.224;2023-03-14T13:25:24;14.50;1.00
19924;DHT22;10124;53.068;18.224;2023-03-14T13:27:57;14.70;1.00
19924;DHT22;10124;53.068;18.224;2023-03-14T13:30:28;14.70;1.00
19924;DHT22;10124;53.068;18.224;2023-03-14T13:32:56;15.10;1.00
19924;DHT22;10124;53.068;18.224;2023-03-14T13:35:29;14.40;1.00
19924;DHT22;10124;53.068;18.224;2023-03-14T13:38:05;14.30;1.00
19924;DHT22;10124;53.068;18.224;2023-03-14T13:40:43;14.60;1.00
19924;DHT22;10124;53.068;18.224;2023-03-14T13:43:20;14.20;1.00
19924;DHT22;10124;53.068;18.224;2023-03-14T13:46:35;14.10;1.00
19924;DHT22;10124;53.068;18.224;2023-03-14T14:01:29;14.20;1.00
19924;DHT22;10124;53.068;18.224;2023-03-14T14:04:06;14.50;1.00
19924;DHT22;10124;53.068;18.224;2023-03-14T14:06:37;14.10;1.00
19924;DHT22;10124;53.068;18.224;2023-03-14T14:09:14;14.20;1.00
19924;DHT22;10124;53.068;18.224;2023-03-14T14:12:10;13.70;1.00
19924;DHT22;10124;53.068;18.224;2023-03-14T14:14:52;13.50;1.00
19924;DHT22;10124;53.068;18.224;2023-03-14T14:17:44;13.70;1.00
19924;DHT22;10124;53.068;18.224;2023-03-14T14:20:29;13.90;1.00
19924;DHT22;10124;53.068;18.224;2023-03-14T14:23:10;13.90;1.00
19924;DHT22;10124;53.068;18.224;2023-03-14T14:25:39;13.60;1.00
19924;DHT22;10124;53.068;18.224;2023-03-14T14:28:27;13.80;1.00
19924;DHT22;10124;53.068;18.224;2023-03-14T14:34:02;13.20;1.00
19924;DHT22;10124;53.068;18.224;2023-03-14T14:36:41;13.70;1.00
19924;DHT22;10124;53.068;18.224;2023-03-14T14:39:23;13.70;1.00
19924;DHT22;10124;53.068;18.224;2023-03-14T14:41:53;13.80;1.00
19924;DHT22;10124;53.068;18.224;2023-03-14T14:44:28;13.90;1.00
19924;DHT22;10124;53.068;18.224;2023-03-14T14:46:58;13.40;1.00
19924;DHT22;10124;53.068;18.224;2023-03-14T14:49:31;14.20;1.00
19924;DHT22;10124;53.068;18.224;2023-03-14T14:52:10;14.20;1.00
19924;DHT22;10124;53.068;18.224;2023-03-14T14:54:45;14.40;1.00
19924;DHT22;10124;53.068;18.224;2023-03-14T14:57:49;15.10;1.00
19924;DHT22;10124;53.068;18.224;2023-03-14T15:03:41;14.70;1.00
19924;DHT22;10124;53.068;18.224;2023-03-14T15:06:14;14.80;1.00
19924;DHT22;10124;53.068;18.224;2023-03-14T15:08:54;14.70;1.00
19924;DHT22;10124;53.068;18.224;2023-03-14T15:11:25;14.50;1.00
19924;DHT22;10124;53.068;18.224;2023-03-14T15:14:01;14.50;1.00
19924;DHT22;10124;53.068;18.224;2023-03-14T15:16:56;14.20;1.00
19924;DHT22;10124;53.068;18.224;2023-03-14T15:19:26;14.60;1.00
19924;DHT22;10124;53.068;18.224;2023-03-14T15:22:02;14.70;1.00
19924;DHT22;10124;53.068;18.224;2023-03-14T15:24:35;14.70;1.00
19924;DHT22;10124;53.068;18.224;2023-03-14T15:27:13;14.60;1.00
19924;DHT22;10124;53.068;18.224;2023-03-14T15:29:42;14.50;1.00
19924;DHT22;10124;53.068;18.224;2023-03-14T15:32:15;14.60;1.00
19924;DHT22;10124;53.068;18.224;2023-03-14T15:34:44;14.30;1.00
19924;DHT22;10124;53.068;18.224;2023-03-14T15:37:15;14.20;1.00
19924;DHT22;10124;53.068;18.224;2023-03-14T15:39:46;15.00;1.00
19924;DHT22;10124;53.068;18.224;2023-03-14T15:42:14;14.20;1.00
19924;DHT22;10124;53.068;18.224;2023-03-14T15:44:42;14.30;1.00
19924;DHT22;10124;53.068;18.224;2023-03-14T15:47:10;14.00;1.00
19924;DHT22;10124;53.068;18.224;2023-03-14T15:52:07;14.50;1.00
19924;DHT22;10124;53.068;18.224;2023-03-14T15:54:35;14.20;1.00
19924;DHT22;10124;53.068;18.224;2023-03-14T15:57:02;14.20;1.00
19924;DHT22;10124;53.068;18.224;2023-03-14T15:59:31;14.10;1.00
19924;DHT22;10124;53.068;18.224;2023-03-14T16:01:59;14.00;1.00
19924;DHT22;10124;53.068;18.224;2023-03-14T16:04:27;14.00;1.00
19924;DHT22;10124;53.068;18.224;2023-03-14T16:06:56;13.90;1.00
19924;DHT22;10124;53.068;18.224;2023-03-14T16:09:24;13.90;1.00
19924;DHT22;10124;53.068;18.224;2023-03-14T16:11:53;13.80;1.00
19924;DHT22;10124;53.068;18.224;2023-03-14T16:14:21;13.80;1.00
19924;DHT22;10124;53.068;18.224;2023-03-14T16:16:52;13.60;1.00
19924;DHT22;10124;53.068;18.224;2023-03-14T16:19:20;13.70;1.00
19924;DHT22;10124;53.068;18.224;2023-03-14T16:21:48;13.70;1.00
19924;DHT22;10124;53.068;18.224;2023-03-14T16:24:19;13.40;1.00
19924;DHT22;10124;53.068;18.224;2023-03-14T16:29:15;14.10;1.00
19924;DHT22;10124;53.068;18.224;2023-03-14T16:34:12;14.30;1.00
19924;DHT22;10124;53.068;18.224;2023-03-14T16:36:39;13.50;1.00
19924;DHT22;10124;53.068;18.224;2023-03-14T16:41:35;12.90;1.00
19924;DHT22;10124;53.068;18.224;2023-03-14T16:46:30;13.10;1.00
19924;DHT22;10124;53.068;18.224;2023-03-14T16:48:58;13.10;1.00
19924;DHT22;10124;53.068;18.224;2023-03-14T16:51:26;13.20;1.00
19924;DHT22;10124;53.068;18.224;2023-03-14T16:53:54;13.10;1.00
19924;DHT22;10124;53.068;18.224;2023-03-14T16:56:22;13.10;1.00
19924;DHT22;10124;53.068;18.224;2023-03-14T16:58:50;13.00;1.00
19924;DHT22;10124;53.068;18.224;2023-03-14T17:01:18;13.00;1.00
19924;DHT22;10124;53.068;18.224;2023-03-14T17:03:47;12.90;1.00
19924;DHT22;10124;53.068;18.224;2023-03-14T17:06:22;13.40;1.00
19924;DHT22;10124;53.068;18.224;2023-03-14T17:08:54;12.90;1.00
19924;DHT22;10124;53.068;18.224;2023-03-14T17:11:23;12.80;1.00
19924;DHT22;10124;53.068;18.224;2023-03-14T17:13:51;13.30;1.00
19924;DHT22;10124;53.068;18.224;2023-03-14T17:16:18;12.70;1.00
19924;DHT22;10124;53.068;18.224;2023-03-14T17:18:48;12.60;1.00
19924;DHT22;10124;53.068;18.224;2023-03-14T17:21:16;12.10;1.00
19924;DHT22;10124;53.068;18.224;2023-03-14T17:23:43;12.40;1.00
19924;DHT22;10124;53.068;18.224;2023-03-14T17:26:11;12.40;1.00
19924;DHT22;10124;53.068;18.224;2023-03-14T17:28:40;12.20;1.00
19924;DHT22;10124;53.068;18.224;2023-03-14T17:31:12;12.20;1.00